Time;durP1;ratioP1;P1;durP2;ratioP2;P2;SDS_P1;SDS_P2;PMS_P1;PMS_P2;Temp;Humidity;BMP_temperature;BMP_pressure;BME280_temperature;BME280_humidity;BME280_pressure;Samples;Min_cycle;Max_cycle;Signal;HPM_P1;HPM_P2
2022/10/15 00:00:50;;;;;;;1.70;0.53;;;;;;;12.18;nan;93434.16;4935649;29;20058;-69
2022/10/15 00:03:17;;;;;;;1.70;0.50;;;;;;;12.15;nan;93432.25;4929780;29;20070;-67
2022/10/15 00:05:44;;;;;;;1.60;0.50;;;;;;;12.17;nan;93436.13;4935240;29;20051;-68
2022/10/15 00:08:12;;;;;;;1.40;0.40;;;;;;;12.16;nan;93439.31;4935163;29;20054;-68
2022/10/15 00:10:38;;;;;;;2.13;0.40;;;;;;;12.13;nan;93435.47;4935222;29;20044;-68
2022/10/15 00:13:05;;;;;;;1.37;0.40;;;;;;;12.18;nan;93439.66;4934626;29;20054;-70
2022/10/15 00:15:35;;;;;;;1.40;0.50;;;;;;;12.19;nan;93435.69;4929713;29;20044;-70
2022/10/15 00:18:02;;;;;;;1.40;0.47;;;;;;;12.21;nan;93427.75;4933166;29;20058;-69
2022/10/15 00:20:29;;;;;;;1.55;0.40;;;;;;;12.20;nan;93426.22;4934996;29;20058;-70
2022/10/15 00:22:55;;;;;;;1.40;0.50;;;;;;;12.21;nan;93436.00;4934843;29;20040;-67
2022/10/15 00:25:22;;;;;;;1.20;0.30;;;;;;;12.24;nan;93432.41;4933296;29;20156;-67
2022/10/15 00:27:49;;;;;;;1.20;0.30;;;;;;;12.23;nan;93430.84;4918180;29;20054;-67
2022/10/15 00:30:16;;;;;;;1.70;0.50;;;;;;;12.25;nan;93428.41;4934251;29;20035;-67
2022/10/15 00:32:43;;;;;;;1.42;0.30;;;;;;;12.28;nan;93429.53;4935122;29;20387;-68
2022/10/15 00:35:09;;;;;;;1.30;0.40;;;;;;;12.26;nan;93432.72;4934416;29;20049;-67
2022/10/15 00:37:36;;;;;;;16.83;8.43;;;;;;;12.28;nan;93427.56;4934558;29;20044;-67
2022/10/15 00:40:03;;;;;;;3.72;0.95;;;;;;;12.27;nan;93431.50;4934217;29;20047;-68
2022/10/15 00:42:30;;;;;;;1.30;0.40;;;;;;;12.25;nan;93427.66;4934559;29;20090;-67
2022/10/15 00:44:58;;;;;;;1.50;0.35;;;;;;;12.26;nan;93416.22;4934025;29;20073;-65
2022/10/15 00:47:39;;;;;;;1.40;0.30;;;;;;;12.28;nan;93415.78;4934679;29;20047;-68
2022/10/15 00:50:17;;;;;;;1.50;0.30;;;;;;;12.27;nan;93420.50;4934012;29;20044;-68
2022/10/15 00:52:56;;;;;;;1.38;0.40;;;;;;;12.28;nan;93418.53;4934246;29;20047;-67
2022/10/15 00:55:27;;;;;;;1.70;0.40;;;;;;;12.28;nan;93421.28;4933806;29;21589;-67
2022/10/15 00:57:57;;;;;;;1.50;0.32;;;;;;;12.33;nan;93423.47;4934410;29;20043;-68
2022/10/15 01:00:24;;;;;;;1.30;0.40;;;;;;;12.33;nan;93416.00;4933663;29;22172;-67
2022/10/15 01:02:51;;;;;;;1.40;0.40;;;;;;;12.36;nan;93420.63;4934326;29;20515;-67
2022/10/15 01:05:20;;;;;;;1.52;0.47;;;;;;;12.35;nan;93424.59;4933858;29;20077;-67
2022/10/15 01:07:46;;;;;;;1.63;0.50;;;;;;;12.38;nan;93418.22;4934377;29;20519;-67
2022/10/15 01:10:14;;;;;;;1.70;0.40;;;;;;;12.42;nan;93431.09;4933458;29;20047;-68
2022/10/15 01:13:09;;;;;;;1.30;0.30;;;;;;;12.41;nan;93427.56;4934105;29;20043;-68
2022/10/15 01:15:58;;;;;;;2.63;1.53;;;;;;;12.46;nan;93421.53;4933478;29;20761;-68
2022/10/15 01:18:38;;;;;;;2.15;1.00;;;;;;;12.43;nan;93430.63;4933206;29;22517;-68
2022/10/15 01:21:15;;;;;;;1.60;0.50;;;;;;;12.48;nan;93432.84;4933506;29;20048;-68
2022/10/15 01:24:03;;;;;;;2.67;0.60;;;;;;;12.46;nan;93435.28;4934131;29;20047;-68
2022/10/15 01:27:07;;;;;;;2.00;0.50;;;;;;;12.43;nan;93436.16;4921021;29;20668;-67
2022/10/15 01:29:53;;;;;;;1.40;0.40;;;;;;;12.39;nan;93425.28;4926463;29;20694;-68
2022/10/15 01:32:28;;;;;;;1.38;0.40;;;;;;;12.43;nan;93419.63;4929159;29;20039;-68
2022/10/15 01:35:04;;;;;;;1.38;0.52;;;;;;;12.44;nan;93409.41;4933220;29;20058;-69
2022/10/15 01:37:50;;;;;;;1.40;0.40;;;;;;;12.47;nan;93409.28;4932024;29;22580;-68
2022/10/15 01:40:30;;;;;;;3.03;0.45;;;;;;;12.51;nan;93407.19;4932876;29;20507;-68
2022/10/15 01:43:00;;;;;;;1.93;0.40;;;;;;;12.48;nan;93412.84;4932720;29;20052;-66
2022/10/15 01:45:35;;;;;;;2.85;0.45;;;;;;;12.49;nan;93406.88;4932897;29;20348;-69
2022/10/15 01:48:06;;;;;;;1.52;0.50;;;;;;;12.55;nan;93409.84;4932849;29;20048;-68
2022/10/15 01:50:36;;;;;;;1.40;0.40;;;;;;;12.54;nan;93411.84;4932621;29;20056;-68
2022/10/15 01:53:06;;;;;;;2.83;0.60;;;;;;;12.52;nan;93408.75;4931996;29;20055;-69
2022/10/15 01:55:36;;;;;;;1.73;0.50;;;;;;;12.50;nan;93399.41;4932599;29;20051;-68
2022/10/15 01:58:04;;;;;;;3.05;0.40;;;;;;;12.48;nan;93402.59;4932376;29;20120;-67
2022/10/15 02:00:31;;;;;;;1.50;0.50;;;;;;;12.45;nan;93403.44;4932815;29;20044;-68
2022/10/15 02:03:01;;;;;;;1.60;0.70;;;;;;;12.50;nan;93402.16;4932323;29;20044;-68
2022/10/15 02:05:38;;;;;;;1.60;0.43;;;;;;;12.52;nan;93410.75;4932819;29;20044;-67
2022/10/15 02:08:24;;;;;;;1.77;0.50;;;;;;;12.54;nan;93405.56;4932341;29;20058;-68
2022/10/15 02:11:00;;;;;;;1.58;0.50;;;;;;;12.58;nan;93403.47;4932465;29;20408;-68
2022/10/15 02:14:00;;;;;;;1.88;0.50;;;;;;;12.64;nan;93398.94;4931735;29;20582;-68
2022/10/15 02:16:36;;;;;;;1.33;0.40;;;;;;;12.59;nan;93402.25;4931450;29;20751;-67
2022/10/15 02:19:25;;;;;;;1.40;0.50;;;;;;;12.47;nan;93401.03;4931740;29;20485;-68
2022/10/15 02:22:06;;;;;;;1.60;0.70;;;;;;;12.56;nan;93400.38;4932038;29;20473;-68
2022/10/15 02:24:44;;;;;;;2.90;0.50;;;;;;;12.59;nan;93408.50;4914783;29;20048;-68
2022/10/15 02:27:14;;;;;;;1.70;0.60;;;;;;;12.58;nan;93397.97;4928093;29;20043;-68
2022/10/15 02:29:43;;;;;;;1.65;0.50;;;;;;;12.53;nan;93399.25;4932749;29;20056;-68
2022/10/15 02:32:13;;;;;;;2.00;0.98;;;;;;;12.51;nan;93409.94;4932012;29;20050;-68
2022/10/15 02:34:40;;;;;;;1.87;0.50;;;;;;;12.58;nan;93403.47;4915831;29;20282;-68
2022/10/15 02:37:08;;;;;;;3.58;0.50;;;;;;;12.63;nan;93400.16;4932074;29;20043;-69
2022/10/15 02:39:34;;;;;;;1.48;0.50;;;;;;;12.67;nan;93397.28;4932791;29;20524;-68
2022/10/15 02:42:02;;;;;;;1.30;0.40;;;;;;;12.71;nan;93403.44;4932322;29;20043;-68
2022/10/15 02:44:29;;;;;;;1.85;0.40;;;;;;;12.73;nan;93401.03;4915849;29;20048;-68
2022/10/15 02:46:58;;;;;;;1.60;0.40;;;;;;;12.73;nan;93396.28;4932570;29;20059;-68
2022/10/15 02:49:25;;;;;;;1.40;0.50;;;;;;;12.69;nan;93405.88;4931192;29;20822;-67
2022/10/15 02:51:52;;;;;;;1.77;0.70;;;;;;;12.72;nan;93411.28;4932286;29;20054;-67
2022/10/15 02:54:19;;;;;;;1.40;0.40;;;;;;;12.70;nan;93408.19;4931955;29;20378;-69
2022/10/15 02:56:46;;;;;;;1.48;0.50;;;;;;;12.71;nan;93408.97;4932628;29;20050;-69
2022/10/15 02:59:13;;;;;;;1.40;0.50;;;;;;;12.69;nan;93412.16;4931973;29;20043;-69
2022/10/15 03:01:40;;;;;;;1.90;0.52;;;;;;;12.70;nan;93427.47;4932512;29;20043;-69
2022/10/15 03:04:06;;;;;;;1.65;0.68;;;;;;;12.69;nan;93419.66;4931979;29;20050;-68
2022/10/15 03:06:33;;;;;;;2.17;0.50;;;;;;;12.61;nan;93427.34;4932420;29;20040;-68
2022/10/15 03:09:00;;;;;;;1.75;0.60;;;;;;;12.61;nan;93421.84;4931515;29;20050;-69
2022/10/15 03:11:27;;;;;;;2.53;0.43;;;;;;;12.63;nan;93422.16;4932268;29;20052;-69
2022/10/15 03:13:54;;;;;;;1.80;0.60;;;;;;;12.68;nan;93418.88;4932552;29;20036;-69
2022/10/15 03:16:20;;;;;;;1.45;0.50;;;;;;;12.63;nan;93415.91;4931823;29;20051;-68
2022/10/15 03:18:47;;;;;;;1.40;0.50;;;;;;;12.69;nan;93414.91;4932227;29;20052;-68
2022/10/15 03:21:14;;;;;;;1.38;0.40;;;;;;;12.71;nan;93420.72;4931767;29;20039;-69
2022/10/15 03:23:41;;;;;;;1.60;0.60;;;;;;;12.73;nan;93418.31;4932295;29;20040;-68
2022/10/15 03:26:08;;;;;;;2.08;0.50;;;;;;;12.75;nan;93415.13;4911645;29;20047;-69
2022/10/15 03:28:34;;;;;;;1.52;0.70;;;;;;;12.73;nan;93417.53;4914545;29;20042;-68
2022/10/15 03:31:01;;;;;;;1.42;0.55;;;;;;;12.70;nan;93415.69;4931614;29;20485;-69
2022/10/15 03:33:28;;;;;;;1.42;0.60;;;;;;;12.68;nan;93418.13;4932056;29;20035;-68
2022/10/15 03:35:56;;;;;;;1.80;0.40;;;;;;;12.69;nan;93425.16;4931994;29;20042;-68
2022/10/15 03:38:23;;;;;;;1.40;0.60;;;;;;;12.67;nan;93416.56;4931012;29;20873;-69
2022/10/15 03:40:49;;;;;;;2.13;0.80;;;;;;;12.67;nan;93422.06;4932174;29;20048;-69
2022/10/15 03:43:16;;;;;;;1.67;0.50;;;;;;;12.66;nan;93423.28;4931481;29;20046;-68
2022/10/15 03:45:43;;;;;;;1.50;0.50;;;;;;;12.72;nan;93424.28;4931978;29;20050;-69
2022/10/15 03:48:10;;;;;;;1.73;0.47;;;;;;;12.81;nan;93423.59;4931351;29;20050;-68
2022/10/15 03:50:36;;;;;;;2.67;0.50;;;;;;;12.83;nan;93426.69;4931877;29;20047;-69
2022/10/15 03:53:04;;;;;;;1.40;0.47;;;;;;;12.84;nan;93423.50;4930826;29;20047;-69
2022/10/15 03:55:32;;;;;;;1.63;0.40;;;;;;;12.85;nan;93419.50;4932068;29;20069;-68
2022/10/15 03:57:59;;;;;;;1.40;0.40;;;;;;;12.86;nan;93426.56;4931626;29;20417;-69
2022/10/15 04:00:25;;;;;;;1.37;0.40;;;;;;;12.88;nan;93424.16;4932408;29;20063;-69
2022/10/15 04:02:52;;;;;;;1.40;0.50;;;;;;;12.86;nan;93428.53;4918727;29;20040;-68
2022/10/15 04:05:19;;;;;;;1.58;0.50;;;;;;;12.88;nan;93421.41;4934806;29;20035;-68
2022/10/15 04:07:46;;;;;;;3.13;1.08;;;;;;;12.91;nan;93419.72;4935147;29;20067;-69
2022/10/15 04:10:13;;;;;;;1.30;0.40;;;;;;;12.87;nan;93425.34;4917978;29;20047;-68
2022/10/15 04:12:40;;;;;;;1.20;0.30;;;;;;;12.84;nan;93423.50;4935336;29;20040;-68
2022/10/15 04:15:07;;;;;;;2.28;0.50;;;;;;;12.83;nan;93416.44;4917958;29;20046;-68
2022/10/15 04:17:34;;;;;;;1.33;0.57;;;;;;;12.85;nan;93422.28;4935286;29;20050;-67
2022/10/15 04:20:00;;;;;;;1.20;0.40;;;;;;;12.84;nan;93420.75;4934356;29;20040;-67
2022/10/15 04:22:27;;;;;;;1.35;0.40;;;;;;;12.82;nan;93431.44;4935004;29;20052;-68
2022/10/15 04:24:54;;;;;;;1.20;0.30;;;;;;;12.85;nan;93429.78;4934813;29;20074;-69
2022/10/15 04:27:21;;;;;;;2.75;0.30;;;;;;;12.87;nan;93427.34;4917631;29;20032;-68
2022/10/15 04:29:48;;;;;;;1.77;0.50;;;;;;;12.82;nan;93431.44;4934886;29;20437;-67
2022/10/15 04:32:15;;;;;;;1.30;0.40;;;;;;;12.77;nan;93431.97;4934202;29;20046;-67
2022/10/15 04:34:44;;;;;;;1.40;0.50;;;;;;;12.85;nan;93436.03;4934823;29;20040;-68
2022/10/15 04:37:11;;;;;;;2.53;0.50;;;;;;;12.81;nan;93442.88;4934504;29;20046;-68
2022/10/15 04:39:38;;;;;;;1.63;0.50;;;;;;;12.76;nan;93439.47;4934660;29;20056;-68
2022/10/15 04:42:04;;;;;;;1.95;0.40;;;;;;;12.79;nan;93446.06;4934310;29;20040;-68
2022/10/15 04:44:31;;;;;;;1.52;0.50;;;;;;;12.75;nan;93446.16;4934892;29;20039;-68
2022/10/15 04:46:58;;;;;;;1.40;0.40;;;;;;;12.78;nan;93439.03;4917265;29;20040;-67
2022/10/15 04:49:25;;;;;;;1.53;0.40;;;;;;;12.79;nan;93446.06;4934828;29;20043;-67
2022/10/15 04:51:52;;;;;;;1.45;0.40;;;;;;;12.79;nan;93449.59;4933280;29;20039;-68
2022/10/15 04:54:19;;;;;;;2.75;0.50;;;;;;;12.75;nan;93451.69;4916318;29;20069;-67
2022/10/15 04:56:46;;;;;;;1.60;0.50;;;;;;;12.78;nan;93453.56;4934045;29;20477;-68
2022/10/15 04:59:12;;;;;;;1.92;0.40;;;;;;;12.77;nan;93451.25;4901140;29;20036;-67
2022/10/15 05:01:39;;;;;;;3.93;0.40;;;;;;;12.79;nan;93454.31;4933688;29;20035;-70
2022/10/15 05:04:08;;;;;;;2.83;0.40;;;;;;;12.73;nan;93459.59;4933077;29;20048;-67
2022/10/15 05:06:35;;;;;;;2.10;0.60;;;;;;;12.68;nan;93457.41;4933960;29;20054;-67
2022/10/15 05:09:01;;;;;;;4.82;1.20;;;;;;;12.65;nan;93450.03;4932951;29;20051;-67
2022/10/15 05:11:28;;;;;;;3.83;0.90;;;;;;;12.66;nan;93461.84;4916335;29;20051;-67
2022/10/15 05:13:56;;;;;;;1.60;0.50;;;;;;;12.69;nan;93458.19;4933554;29;20067;-67
2022/10/15 05:16:26;;;;;;;1.70;0.63;;;;;;;12.64;nan;93465.03;4932536;29;20456;-67
2022/10/15 05:19:01;;;;;;;1.98;0.50;;;;;;;12.67;nan;93464.13;4916385;29;20043;-69
2022/10/15 05:21:30;;;;;;;1.50;0.60;;;;;;;12.62;nan;93452.91;4932615;29;20257;-67
2022/10/15 05:23:58;;;;;;;1.80;0.65;;;;;;;12.70;nan;93457.75;4933216;29;20051;-67
2022/10/15 05:26:27;;;;;;;2.60;1.03;;;;;;;12.68;nan;93467.66;4932563;29;20230;-68
2022/10/15 05:28:58;;;;;;;2.20;0.60;;;;;;;12.62;nan;93464.69;4933204;29;20042;-67
2022/10/15 05:31:30;;;;;;;5.35;2.67;;;;;;;12.65;nan;93466.53;4932518;29;21713;-67
2022/10/15 05:33:57;;;;;;;3.83;1.35;;;;;;;12.66;nan;93470.84;4933146;29;20044;-67
2022/10/15 05:36:26;;;;;;;12.57;7.35;;;;;;;12.66;nan;93470.84;4932154;29;20687;-68
2022/10/15 05:38:55;;;;;;;13.13;8.20;;;;;;;12.71;nan;93477.78;4915823;29;20050;-68
2022/10/15 05:41:23;;;;;;;17.95;10.40;;;;;;;12.72;nan;93480.09;4932813;29;20047;-67
2022/10/15 05:43:51;;;;;;;23.13;12.48;;;;;;;12.71;nan;93486.81;4933003;29;20056;-68
2022/10/15 05:46:19;;;;;;;23.33;11.85;;;;;;;12.74;nan;93488.69;4932624;29;20500;-68
2022/10/15 05:48:53;;;;;;;16.90;11.32;;;;;;;12.75;nan;93495.72;4933075;29;20051;-68
2022/10/15 05:51:21;;;;;;;2.13;0.87;;;;;;;12.72;nan;93493.09;4932421;29;20053;-67
2022/10/15 05:53:51;;;;;;;3.35;1.50;;;;;;;12.74;nan;93499.72;4932560;29;20527;-68
2022/10/15 05:56:18;;;;;;;3.30;1.50;;;;;;;12.78;nan;93499.59;4932530;29;20043;-67
2022/10/15 05:58:45;;;;;;;2.17;0.90;;;;;;;12.79;nan;93501.91;4932818;29;20510;-68
2022/10/15 06:01:13;;;;;;;2.80;1.60;;;;;;;12.80;nan;93499.94;4932088;29;20051;-68
2022/10/15 06:03:40;;;;;;;7.00;4.63;;;;;;;12.81;nan;93498.72;4932718;29;20043;-68
2022/10/15 06:06:16;;;;;;;2.85;1.00;;;;;;;12.78;nan;93496.84;4931749;29;20057;-67
2022/10/15 06:08:43;;;;;;;12.48;8.38;;;;;;;12.81;nan;93495.97;4932568;29;20036;-68
2022/10/15 06:11:10;;;;;;;4.28;2.78;;;;;;;12.80;nan;93505.44;4931639;29;20039;-68
2022/10/15 06:13:39;;;;;;;1.85;0.85;;;;;;;12.92;nan;93501.91;4931695;29;20055;-68
2022/10/15 06:16:06;;;;;;;2.90;1.40;;;;;;;12.99;nan;93503.69;4932722;29;20055;-68
2022/10/15 06:18:34;;;;;;;3.70;1.67;;;;;;;13.05;nan;93504.66;4916144;29;20036;-68
2022/10/15 06:21:00;;;;;;;2.50;1.20;;;;;;;13.05;nan;93509.41;4932241;29;20040;-68
2022/10/15 06:23:27;;;;;;;3.08;1.10;;;;;;;13.15;nan;93505.53;4915235;29;20392;-68
2022/10/15 06:25:54;;;;;;;4.03;2.78;;;;;;;13.17;nan;93512.16;4932826;29;20040;-67
2022/10/15 06:28:21;;;;;;;4.70;3.77;;;;;;;13.26;nan;93522.53;4932186;29;20048;-68
2022/10/15 06:30:48;;;;;;;3.85;2.10;;;;;;;13.14;nan;93518.56;4915954;29;20052;-69
2022/10/15 06:33:15;;;;;;;1.70;0.70;;;;;;;13.17;nan;93528.69;4932019;29;20035;-68
2022/10/15 06:35:43;;;;;;;4.65;3.13;;;;;;;13.14;nan;93529.56;4932814;29;20055;-68
2022/10/15 06:38:10;;;;;;;14.38;10.60;;;;;;;13.21;nan;93533.31;4932054;29;20110;-68
2022/10/15 06:40:38;;;;;;;2.57;1.47;;;;;;;13.19;nan;93539.25;4932171;29;20488;-68
2022/10/15 06:43:09;;;;;;;3.03;1.02;;;;;;;13.18;nan;93535.75;4932150;29;20047;-68
2022/10/15 06:45:39;;;;;;;2.42;1.33;;;;;;;13.19;nan;93548.28;4932573;29;20489;-68
2022/10/15 06:48:06;;;;;;;2.00;0.88;;;;;;;13.31;nan;93546.00;4915154;29;20046;-67
2022/10/15 06:50:35;;;;;;;2.50;1.30;;;;;;;13.54;nan;93551.19;4932322;29;20039;-67
2022/10/15 06:53:03;;;;;;;3.47;1.20;;;;;;;13.59;nan;93553.34;4931795;29;20040;-68
2022/10/15 06:55:30;;;;;;;1.40;0.40;;;;;;;13.42;nan;93548.41;4932389;29;20043;-68
2022/10/15 06:57:57;;;;;;;1.17;0.30;;;;;;;13.66;nan;93562.59;4932153;29;20047;-67
2022/10/15 07:00:25;;;;;;;1.30;0.30;;;;;;;13.74;nan;93552.88;4931340;29;20624;-67
2022/10/15 07:02:52;;;;;;;1.63;0.40;;;;;;;14.03;nan;93562.97;4931817;29;20063;-68
2022/10/15 07:05:19;;;;;;;4.23;2.23;;;;;;;14.16;nan;93564.44;4932023;29;20098;-68
2022/10/15 07:07:53;;;;;;;2.10;0.73;;;;;;;14.24;nan;93572.50;4932346;29;20535;-68
2022/10/15 07:10:21;;;;;;;1.83;0.70;;;;;;;14.12;nan;93577.59;4931474;29;20047;-68
2022/10/15 07:12:48;;;;;;;1.70;0.50;;;;;;;14.47;nan;93583.13;4930118;29;20042;-68
2022/10/15 07:15:15;;;;;;;1.55;0.45;;;;;;;14.62;nan;93574.34;4931646;29;20070;-67
2022/10/15 07:17:50;;;;;;;1.67;0.40;;;;;;;14.23;nan;93574.50;4931871;29;20047;-68
2022/10/15 07:20:18;;;;;;;1.98;0.47;;;;;;;14.61;nan;93573.59;4931220;29;20066;-69
2022/10/15 07:22:49;;;;;;;1.40;0.40;;;;;;;14.99;nan;93575.34;4931774;29;20044;-68
2022/10/15 07:25:15;;;;;;;1.50;0.40;;;;;;;15.48;nan;93579.41;4931095;29;20477;-68
2022/10/15 07:27:42;;;;;;;1.80;0.80;;;;;;;15.83;nan;93574.44;4931915;29;20501;-69
2022/10/15 07:30:09;;;;;;;1.27;0.30;;;;;;;15.80;nan;93577.38;4931551;29;20048;-69
2022/10/15 07:32:36;;;;;;;1.40;0.40;;;;;;;16.33;nan;93585.44;4932377;29;20040;-68
2022/10/15 07:35:04;;;;;;;1.55;0.30;;;;;;;16.17;nan;93581.72;4933397;29;20408;-68
2022/10/15 07:37:30;;;;;;;1.73;0.50;;;;;;;17.98;nan;93569.63;4935836;29;20043;-68
2022/10/15 07:39:57;;;;;;;1.83;0.52;;;;;;;19.00;nan;93577.94;4935760;29;20121;-69
2022/10/15 07:42:24;;;;;;;2.50;0.40;;;;;;;20.09;nan;93577.13;4934725;29;20274;-68
2022/10/15 07:44:51;;;;;;;1.52;0.50;;;;;;;21.69;nan;93575.53;4935690;29;20035;-69
2022/10/15 07:47:18;;;;;;;1.77;0.50;;;;;;;21.77;nan;93584.22;4934884;29;20055;-68
2022/10/15 07:49:45;;;;;;;1.88;0.50;;;;;;;23.55;nan;93581.91;4935615;29;20492;-69
2022/10/15 07:52:12;;;;;;;2.78;0.50;;;;;;;20.56;nan;93588.34;4934681;29;20078;-69
2022/10/15 07:54:39;;;;;;;1.87;0.60;;;;;;;20.65;nan;93587.50;4935589;29;20039;-69
2022/10/15 07:57:08;;;;;;;3.20;0.35;;;;;;;20.23;nan;93595.06;4934949;29;20058;-69
2022/10/15 07:59:35;;;;;;;2.40;0.50;;;;;;;18.61;nan;93588.31;4935402;29;20510;-68
2022/10/15 08:02:02;;;;;;;1.98;0.40;;;;;;;18.11;nan;93599.91;4934950;29;20048;-70
2022/10/15 08:04:29;;;;;;;1.50;0.30;;;;;;;17.20;nan;93594.28;4918518;29;20043;-68
2022/10/15 08:06:56;;;;;;;1.80;0.40;;;;;;;17.70;nan;93600.25;4935450;29;20040;-68
2022/10/15 08:09:24;;;;;;;2.45;0.43;;;;;;;17.36;nan;93595.94;4934134;29;20404;-67
2022/10/15 08:11:50;;;;;;;1.88;0.50;;;;;;;20.46;nan;93604.44;4918427;29;20048;-68
2022/10/15 08:14:17;;;;;;;3.15;0.47;;;;;;;19.40;nan;93609.22;4934269;29;20113;-68
2022/10/15 08:16:44;;;;;;;2.60;0.40;;;;;;;19.87;nan;93596.31;4934965;29;20036;-69
2022/10/15 08:19:11;;;;;;;1.57;0.33;;;;;;;22.26;nan;93590.69;4917702;29;20052;-68
2022/10/15 08:21:37;;;;;;;1.52;0.55;;;;;;;22.41;nan;93591.25;4934830;29;20469;-68
2022/10/15 08:24:06;;;;;;;2.13;0.68;;;;;;;24.70;nan;93596.03;4934180;29;20042;-67
2022/10/15 08:26:33;;;;;;;2.45;0.60;;;;;;;23.41;nan;93603.28;4934361;29;20396;-68
2022/10/15 08:29:00;;;;;;;1.85;0.55;;;;;;;23.41;nan;93603.28;4930895;29;20043;-68
2022/10/15 08:31:27;;;;;;;3.10;1.67;;;;;;;22.90;nan;93603.16;4932532;29;20048;-68
2022/10/15 08:33:54;;;;;;;2.38;0.50;;;;;;;21.16;nan;93616.69;4934703;29;20507;-69
2022/10/15 08:36:21;;;;;;;1.83;0.50;;;;;;;20.47;nan;93616.38;4934061;29;20044;-66
2022/10/15 08:38:47;;;;;;;2.38;0.52;;;;;;;20.12;nan;93608.81;4934767;29;20035;-68
2022/10/15 08:41:29;;;;;;;3.88;0.50;;;;;;;20.46;nan;93614.84;4934214;29;20433;-66
2022/10/15 08:43:57;;;;;;;1.60;0.40;;;;;;;20.25;nan;93622.44;4934668;29;20559;-67
2022/10/15 08:46:34;;;;;;;1.58;0.50;;;;;;;19.79;nan;93617.47;4933062;29;21741;-68
2022/10/15 08:49:02;;;;;;;2.60;0.50;;;;;;;19.33;nan;93613.91;4934000;29;20046;-67
2022/10/15 08:51:47;;;;;;;3.65;0.82;;;;;;;19.20;nan;93626.59;4917670;29;20047;-67
2022/10/15 08:54:16;;;;;;;2.13;0.50;;;;;;;18.51;nan;93615.41;4933676;29;20046;-67
2022/10/15 08:56:48;;;;;;;1.93;0.60;;;;;;;18.81;nan;93623.84;4934568;29;20040;-68
2022/10/15 08:59:23;;;;;;;1.80;0.60;;;;;;;18.64;nan;93624.25;4933858;29;20043;-68
2022/10/15 09:01:58;;;;;;;2.20;0.80;;;;;;;18.70;nan;93630.69;4934212;29;20044;-67
2022/10/15 09:04:39;;;;;;;3.63;0.52;;;;;;;18.86;nan;93621.19;4933363;29;20806;-68
2022/10/15 09:07:15;;;;;;;2.97;0.68;;;;;;;19.09;nan;93625.13;4933450;29;20056;-68
2022/10/15 09:09:48;;;;;;;2.33;0.63;;;;;;;20.49;nan;93623.00;4934113;29;20058;-67
2022/10/15 09:12:17;;;;;;;2.72;0.60;;;;;;;21.79;nan;93624.38;4933545;29;20039;-69
2022/10/15 09:14:46;;;;;;;2.53;0.80;;;;;;;21.73;nan;93623.56;4934238;29;20048;-69
2022/10/15 09:17:17;;;;;;;1.98;0.55;;;;;;;22.49;nan;93616.72;4933709;29;20367;-69
2022/10/15 09:19:49;;;;;;;2.25;0.60;;;;;;;21.80;nan;93625.91;4917038;29;20051;-69
2022/10/15 09:22:18;;;;;;;1.60;0.50;;;;;;;19.20;nan;93629.38;4933041;29;20048;-68
2022/10/15 09:24:44;;;;;;;3.08;1.15;;;;;;;19.32;nan;93620.72;4933894;29;20047;-68
2022/10/15 09:27:31;;;;;;;2.95;0.80;;;;;;;18.23;nan;93623.16;4933323;29;20035;-67
2022/10/15 09:30:19;;;;;;;2.38;0.80;;;;;;;18.59;nan;93624.16;4933124;29;20035;-67
2022/10/15 09:32:49;;;;;;;2.08;0.80;;;;;;;18.70;nan;93627.91;4933760;29;20047;-68
2022/10/15 09:35:31;;;;;;;4.30;0.70;;;;;;;17.99;nan;93632.25;4933081;29;20484;-70
2022/10/15 09:38:30;;;;;;;1.90;0.80;;;;;;;18.22;nan;93635.50;4933181;29;20035;-69
2022/10/15 09:41:03;;;;;;;2.80;0.70;;;;;;;18.10;nan;93631.72;4933730;29;20051;-68
2022/10/15 09:43:35;;;;;;;3.15;0.68;;;;;;;18.09;nan;93632.94;4932525;29;20664;-68
2022/10/15 09:46:03;;;;;;;2.50;0.85;;;;;;;18.02;nan;93630.53;4933064;29;20047;-68
2022/10/15 09:48:34;;;;;;;2.70;1.10;;;;;;;18.19;nan;93640.00;4933310;29;20040;-67
2022/10/15 09:51:23;;;;;;;2.05;0.70;;;;;;;17.46;nan;93641.06;4932587;29;20046;-68
2022/10/15 09:54:22;;;;;;;3.45;0.70;;;;;;;17.97;nan;93645.84;4931191;29;20044;-68
2022/10/15 09:56:54;;;;;;;3.50;0.70;;;;;;;17.82;nan;93647.72;4919265;29;20235;-68
2022/10/15 09:59:23;;;;;;;1.88;0.70;;;;;;;17.45;nan;93650.63;4932651;29;20036;-68
2022/10/15 10:02:02;;;;;;;2.67;0.93;;;;;;;17.37;nan;93652.97;4932893;29;20048;-67
2022/10/15 10:04:31;;;;;;;2.40;1.00;;;;;;;17.37;nan;93661.28;4932086;29;20837;-67
2022/10/15 10:07:01;;;;;;;2.65;0.70;;;;;;;17.41;nan;93664.66;4932651;29;20044;-68
2022/10/15 10:09:36;;;;;;;2.92;0.65;;;;;;;17.31;nan;93663.91;4933042;29;20039;-68
2022/10/15 10:12:06;;;;;;;2.20;0.82;;;;;;;17.46;nan;93664.00;4932604;29;20054;-67
2022/10/15 10:14:45;;;;;;;1.90;0.70;;;;;;;17.35;nan;93672.06;4932895;29;20424;-67
2022/10/15 10:17:16;;;;;;;2.20;0.77;;;;;;;17.25;nan;93667.78;4932304;29;20042;-68
2022/10/15 10:19:59;;;;;;;3.03;0.90;;;;;;;17.03;nan;93681.81;4915217;29;20076;-68
2022/10/15 10:22:26;;;;;;;2.45;0.73;;;;;;;17.26;nan;93678.38;4923980;29;20051;-68
2022/10/15 10:24:53;;;;;;;2.72;0.77;;;;;;;17.39;nan;93683.00;4916039;29;20044;-67
2022/10/15 10:27:27;;;;;;;2.17;0.70;;;;;;;16.88;nan;93681.66;4932310;29;20055;-67
2022/10/15 10:29:59;;;;;;;2.78;0.80;;;;;;;16.82;nan;93689.03;4915882;29;20050;-68
2022/10/15 10:32:30;;;;;;;3.15;0.82;;;;;;;16.70;nan;93687.94;4914944;29;20821;-68
2022/10/15 10:34:59;;;;;;;2.47;0.80;;;;;;;16.75;nan;93690.88;4932744;29;20058;-68
2022/10/15 10:37:27;;;;;;;3.08;0.90;;;;;;;16.73;nan;93689.78;4931626;29;20444;-70
2022/10/15 10:39:59;;;;;;;2.07;0.70;;;;;;;16.78;nan;93692.72;4932517;29;20035;-68
2022/10/15 10:42:37;;;;;;;4.22;0.70;;;;;;;16.63;nan;93679.94;4931336;29;20889;-68
2022/10/15 10:45:19;;;;;;;2.17;0.80;;;;;;;16.32;nan;93689.91;4932077;29;20047;-67
2022/10/15 10:47:46;;;;;;;4.85;1.75;;;;;;;16.74;nan;93694.09;4932345;29;20047;-67
2022/10/15 10:50:36;;;;;;;3.88;1.45;;;;;;;16.43;nan;93688.69;4931702;29;20042;-68
2022/10/15 10:53:20;;;;;;;3.50;1.00;;;;;;;16.29;nan;93685.25;4929185;29;20499;-67
2022/10/15 10:55:49;;;;;;;1.90;0.63;;;;;;;16.71;nan;93701.34;4932218;29;20054;-68
2022/10/15 10:58:22;;;;;;;2.17;0.70;;;;;;;16.97;nan;93704.59;4931945;29;20048;-68
2022/10/15 11:00:52;;;;;;;3.00;0.90;;;;;;;16.97;nan;93704.59;4932236;29;20102;-69
2022/10/15 11:03:32;;;;;;;4.57;0.70;;;;;;;16.56;nan;93697.63;4931822;29;20043;-68
2022/10/15 11:06:22;;;;;;;2.33;0.60;;;;;;;16.60;nan;93689.16;4931799;29;20052;-68
2022/10/15 11:09:19;;;;;;;1.88;0.80;;;;;;;17.11;nan;93692.13;4932823;29;20058;-68
2022/10/15 11:12:05;;;;;;;2.92;0.70;;;;;;;17.10;nan;93690.59;4937524;29;21864;-68
2022/10/15 11:14:41;;;;;;;3.00;1.10;;;;;;;16.55;nan;93693.31;4937717;29;22581;-68
2022/10/15 11:17:40;;;;;;;2.20;1.10;;;;;;;16.73;nan;93690.56;4937934;29;20050;-68
2022/10/15 11:20:27;;;;;;;5.80;2.40;;;;;;;17.36;nan;93674.38;4915952;29;20051;-67
2022/10/15 11:23:21;;;;;;;3.17;1.20;;;;;;;17.45;nan;93670.81;4937942;29;20054;-67
2022/10/15 11:25:58;;;;;;;4.22;1.15;;;;;;;17.81;nan;93673.91;4938512;29;20052;-68
2022/10/15 11:28:53;;;;;;;6.60;3.03;;;;;;;17.70;nan;93666.88;4937567;29;20635;-68
2022/10/15 11:31:34;;;;;;;4.80;2.25;;;;;;;18.28;nan;93659.38;4937977;29;20393;-68
2022/10/15 11:34:34;;;;;;;2.33;0.83;;;;;;;19.28;nan;93650.00;4937845;29;20051;-68
2022/10/15 11:37:10;;;;;;;2.15;0.70;;;;;;;19.35;nan;93657.97;4937571;29;20036;-69
2022/10/15 11:39:46;;;;;;;2.65;1.00;;;;;;;18.68;nan;93649.84;4938463;29;20055;-67
2022/10/15 11:42:33;;;;;;;3.25;0.90;;;;;;;19.29;nan;93646.72;4937987;29;20040;-67
2022/10/15 11:45:37;;;;;;;4.90;1.60;;;;;;;18.38;nan;93657.31;4937884;29;20054;-68
2022/10/15 11:48:13;;;;;;;2.77;0.93;;;;;;;18.06;nan;93664.44;4937577;29;20469;-68
2022/10/15 11:50:53;;;;;;;3.85;1.50;;;;;;;18.49;nan;93648.44;4938323;29;20501;-68
2022/10/15 11:53:32;;;;;;;3.95;1.90;;;;;;;19.48;nan;93641.00;4935602;29;20051;-68
2022/10/15 11:56:12;;;;;;;4.22;2.00;;;;;;;19.50;nan;93647.59;4937818;29;20035;-68
2022/10/15 11:58:49;;;;;;;3.58;1.48;;;;;;;19.33;nan;93641.72;4938226;29;20047;-69
2022/10/15 12:01:23;;;;;;;2.10;0.90;;;;;;;18.98;nan;93641.63;4937524;29;20050;-67
2022/10/15 12:04:16;;;;;;;2.63;0.65;;;;;;;18.70;nan;93641.81;4937957;29;20371;-67
2022/10/15 12:06:48;;;;;;;2.63;1.10;;;;;;;19.01;nan;93635.09;4913751;29;20767;-68
2022/10/15 12:09:24;;;;;;;2.72;0.70;;;;;;;18.02;nan;93636.84;4937613;29;20043;-68